Time;durP1;ratioP1;P1;durP2;ratioP2;P2;SDS_P1;SDS_P2;PMS_P1;PMS_P2;Temp;Humidity;BMP_temperature;BMP_pressure;BME280_temperature;BME280_humidity;BME280_pressure;Samples;Min_cycle;Max_cycle;Signal;HPM_P1;HPM_P2
2023/05/30 08:57:17;;;;;;;10.80;4.72;;;;;;;13.26;71.56;102523.47;5094785;27;20915;-71
2023/05/30 08:59:43;;;;;;;13.77;5.18;;;;;;;13.37;72.18;102530.22;5066316;28;20047;-70
2023/05/30 09:02:11;;;;;;;17.23;5.45;;;;;;;13.48;71.28;102529.63;5067062;28;20027;-71
2023/05/30 09:04:37;;;;;;;15.40;5.53;;;;;;;13.59;69.88;102529.06;5063874;28;20103;-72
2023/05/30 09:07:03;;;;;;;15.70;6.25;;;;;;;13.60;68.32;102524.44;5072015;28;20028;-71
2023/05/30 09:09:33;;;;;;;17.90;6.07;;;;;;;13.76;70.42;102528.69;5070372;28;20173;-71
2023/05/30 09:11:58;;;;;;;20.05;6.85;;;;;;;13.76;67.98;102526.81;5062918;28;20037;-71
2023/05/30 09:14:23;;;;;;;12.80;6.25;;;;;;;13.84;67.27;102523.06;5067291;28;20040;-70
2023/05/30 09:16:49;;;;;;;15.70;6.55;;;;;;;13.92;66.14;102516.56;5089630;28;20043;-70
2023/05/30 09:19:14;;;;;;;15.88;6.30;;;;;;;14.01;67.00;102515.34;5089490;28;20020;-71
2023/05/30 09:21:40;;;;;;;17.08;6.38;;;;;;;14.10;66.21;102513.25;5089674;28;20032;-70
2023/05/30 09:24:05;;;;;;;18.63;6.47;;;;;;;14.08;65.80;102510.75;5089656;28;20112;-71
2023/05/30 09:26:32;;;;;;;16.85;6.07;;;;;;;14.29;66.59;102506.97;5088031;28;20040;-70
2023/05/30 09:29:07;;;;;;;18.42;6.35;;;;;;;14.35;65.28;102505.31;5088110;28;20032;-71
2023/05/30 09:31:34;;;;;;;17.70;7.07;;;;;;;14.36;65.05;102505.09;5068291;28;20025;-70
2023/05/30 09:34:01;;;;;;;17.58;6.53;;;;;;;14.44;65.75;102503.22;5069206;28;20044;-71
2023/05/30 09:36:28;;;;;;;18.20;6.50;;;;;;;14.51;64.32;102507.63;5068811;28;20064;-71
2023/05/30 09:38:58;;;;;;;15.60;7.13;;;;;;;14.45;64.18;102504.91;5069116;28;20163;-71
2023/05/30 09:41:25;;;;;;;18.42;6.90;;;;;;;14.50;64.72;102494.19;5068829;28;20033;-72
2023/05/30 09:43:54;;;;;;;17.30;6.50;;;;;;;14.50;62.78;102496.94;5068993;28;20021;-71
2023/05/30 09:46:21;;;;;;;13.60;6.90;;;;;;;14.62;62.96;102505.34;5062264;28;20043;-70
2023/05/30 09:48:47;;;;;;;16.73;6.72;;;;;;;14.56;62.18;102496.06;5065207;28;20021;-69
2023/05/30 09:51:14;;;;;;;18.10;6.93;;;;;;;14.66;63.86;102493.78;5067412;28;20031;-71
2023/05/30 09:54:01;;;;;;;19.00;6.63;;;;;;;14.77;64.09;102494.19;5068790;28;20043;-74
2023/05/30 09:56:30;;;;;;;12.68;6.70;;;;;;;14.91;63.84;102497.72;5065770;28;20051;-71
2023/05/30 09:59:02;;;;;;;20.55;6.85;;;;;;;15.12;63.45;102485.72;5051087;28;20072;-71
2023/05/30 10:01:34;;;;;;;;;;;;;;;15.14;63.86;102492.63;5067197;28;20036;-70
2023/05/30 10:03:59;;;;;;;18.75;6.55;;;;;;;15.25;61.99;102480.22;5068326;28;19920;-69
2023/05/30 10:06:26;;;;;;;13.10;6.97;;;;;;;15.23;61.70;102477.69;5063470;28;20048;-71
2023/05/30 10:08:52;;;;;;;16.17;7.25;;;;;;;15.38;62.46;102482.88;5055456;28;20029;-70
2023/05/30 10:11:17;;;;;;;16.50;7.30;;;;;;;15.42;60.81;102484.09;5048975;28;20026;-70
2023/05/30 10:13:43;;;;;;;13.45;6.63;;;;;;;15.37;59.45;102474.91;5048074;28;20041;-69
2023/05/30 10:16:13;;;;;;;12.85;7.10;;;;;;;15.53;60.00;102481.75;5054631;28;20033;-71
2023/05/30 10:18:44;;;;;;;14.70;6.97;;;;;;;15.62;60.03;102482.31;5034574;28;20099;-70
2023/05/30 10:21:11;;;;;;;18.77;7.15;;;;;;;15.62;59.94;102476.88;5035176;28;20128;-73
2023/05/30 10:23:39;;;;;;;17.83;7.47;;;;;;;15.59;58.68;102481.72;5035092;28;20044;-70
2023/05/30 10:26:07;;;;;;;14.98;6.75;;;;;;;15.75;59.74;102483.06;5035177;28;20037;-71
2023/05/30 10:28:36;;;;;;;13.43;7.20;;;;;;;15.81;59.07;102486.03;5072269;28;20036;-74
2023/05/30 10:31:03;;;;;;;16.70;6.82;;;;;;;15.92;58.13;102483.41;5074615;28;20476;-72
2023/05/30 10:33:33;;;;;;;13.73;7.22;;;;;;;16.03;57.93;102484.59;5066761;28;20057;-73
2023/05/30 10:35:58;;;;;;;17.27;7.22;;;;;;;16.04;57.00;102488.16;5073777;28;20039;-73
2023/05/30 10:38:27;;;;;;;15.82;7.63;;;;;;;15.88;57.00;102476.72;5053944;28;20025;-73
2023/05/30 10:41:09;;;;;;;17.15;7.35;;;;;;;16.02;57.18;102474.72;5053356;28;20033;-70
2023/05/30 10:43:59;;;;;;;15.98;7.43;;;;;;;16.16;56.03;102477.38;5054390;28;20063;-71
2023/05/30 10:46:33;;;;;;;15.13;7.47;;;;;;;16.06;56.08;102469.66;5054379;28;20051;-71
2023/05/30 10:49:06;;;;;;;12.95;7.70;;;;;;;16.07;56.53;102474.91;5054502;28;20491;-69
2023/05/30 10:51:51;;;;;;;19.00;7.25;;;;;;;16.23;57.41;102461.72;5054024;28;20025;-72
2023/05/30 10:54:16;;;;;;;14.27;6.68;;;;;;;16.31;56.33;102450.53;5054027;28;20032;-73
2023/05/30 10:56:42;;;;;;;13.68;6.35;;;;;;;16.47;54.60;102463.63;5054350;28;20116;-72
2023/05/30 10:59:12;;;;;;;14.75;7.10;;;;;;;16.46;55.60;102456.47;5052532;28;20069;-71
2023/05/30 11:01:38;;;;;;;12.45;6.50;;;;;;;16.56;55.31;102449.66;5050343;28;20052;-72
2023/05/30 11:04:09;;;;;;;15.15;6.70;;;;;;;16.76;56.97;102450.28;5054608;28;20145;-71
2023/05/30 11:06:45;;;;;;;13.80;6.82;;;;;;;16.87;54.87;102451.47;5072015;28;20041;-72
2023/05/30 11:09:19;;;;;;;17.45;6.95;;;;;;;16.91;52.87;102452.69;5072511;28;20141;-72
2023/05/30 11:11:52;;;;;;;17.25;6.80;;;;;;;17.01;53.80;102446.66;5072334;28;20032;-74
2023/05/30 11:14:24;;;;;;;15.80;6.90;;;;;;;17.20;54.59;102442.00;5073809;28;20399;-72
2023/05/30 11:17:05;;;;;;;15.45;6.32;;;;;;;17.32;53.08;102447.53;5073301;28;20107;-71
2023/05/30 11:19:48;;;;;;;15.07;6.60;;;;;;;17.39;53.33;102444.69;5070269;28;20032;-73
2023/05/30 11:22:15;;;;;;;15.57;6.50;;;;;;;17.33;51.49;102454.66;5073489;28;20036;-71
2023/05/30 11:24:41;;;;;;;13.10;6.15;;;;;;;17.49;52.32;102443.06;5073277;28;20376;-71
2023/05/30 11:27:09;;;;;;;15.98;6.50;;;;;;;17.55;52.06;102438.56;5065459;28;20029;-72
2023/05/30 11:29:47;;;;;;;14.18;6.70;;;;;;;17.74;52.70;102438.50;5033135;28;20227;-70
2023/05/30 11:32:20;;;;;;;14.32;6.60;;;;;;;17.81;51.59;102434.59;5032347;28;20029;-71
2023/05/30 11:34:46;;;;;;;14.32;6.05;;;;;;;17.93;51.89;102426.41;5056751;28;20028;-73
2023/05/30 11:37:11;;;;;;;14.63;6.70;;;;;;;18.04;51.22;102430.25;5073300;28;20372;-75
2023/05/30 11:39:37;;;;;;;13.82;5.38;;;;;;;18.14;50.95;102427.75;5073334;28;20471;-74
2023/05/30 11:42:05;;;;;;;13.13;5.90;;;;;;;18.08;51.10;102420.50;5072182;28;20098;-73
2023/05/30 11:44:31;;;;;;;16.73;6.35;;;;;;;18.16;50.65;102427.50;5071876;28;20025;-73
2023/05/30 11:47:01;;;;;;;14.80;6.20;;;;;;;18.11;50.75;102417.28;5071838;28;20037;-73
2023/05/30 11:49:26;;;;;;;17.63;6.30;;;;;;;18.23;50.87;102406.31;5069687;28;20043;-71
2023/05/30 11:51:55;;;;;;;14.85;5.50;;;;;;;18.51;50.82;102410.22;5052188;28;20025;-71
2023/05/30 11:54:21;;;;;;;13.38;5.57;;;;;;;18.34;49.63;102408.25;5051271;28;20366;-70
2023/05/30 11:56:47;;;;;;;17.42;6.38;;;;;;;18.57;50.35;102415.59;5068339;28;20052;-70
2023/05/30 11:59:17;;;;;;;12.73;6.50;;;;;;;18.46;49.08;102402.72;5061563;28;20032;-74
2023/05/30 12:01:42;;;;;;;14.30;6.05;;;;;;;18.64;48.94;102409.13;5038592;28;20115;-75
2023/05/30 12:04:07;;;;;;;14.05;5.38;;;;;;;18.79;49.13;102390.25;5073292;28;20087;-75
2023/05/30 12:06:33;;;;;;;12.73;5.72;;;;;;;18.77;48.73;102398.72;5072540;28;20024;-80
2023/05/30 12:08:58;;;;;;;15.07;5.65;;;;;;;18.71;48.73;102391.47;5073034;28;20388;-76
2023/05/30 12:11:23;;;;;;;14.98;6.00;;;;;;;18.73;49.76;102391.22;5072654;28;20487;-73
2023/05/30 12:13:53;;;;;;;12.80;5.80;;;;;;;18.66;49.46;102391.38;5071668;28;20039;-77
2023/05/30 12:16:26;;;;;;;18.42;5.45;;;;;;;18.80;48.85;102386.44;5066816;28;20036;-76
2023/05/30 12:18:52;;;;;;;13.75;5.82;;;;;;;18.97;48.18;102388.47;5057163;28;20024;-81
2023/05/30 12:21:19;;;;;;;11.68;5.45;;;;;;;19.15;48.59;102385.50;5052661;28;20109;-73
2023/05/30 12:23:44;;;;;;;12.27;5.40;;;;;;;19.44;48.77;102380.00;5036756;28;20033;-73
2023/05/30 12:26:16;;;;;;;16.38;5.40;;;;;;;19.51;47.81;102375.19;5050696;28;20033;-71
2023/05/30 12:28:46;;;;;;;15.60;5.63;;;;;;;19.64;47.71;102379.50;5051444;28;20029;-74
2023/05/30 12:31:20;;;;;;;13.02;5.55;;;;;;;19.74;47.84;102365.13;5052133;28;20456;-74
2023/05/30 12:33:45;;;;;;;12.90;5.60;;;;;;;19.89;46.96;102372.81;5051227;28;20427;-75
2023/05/30 12:36:11;;;;;;;18.27;6.18;;;;;;;19.90;46.60;102360.72;5060702;28;20086;-73
2023/05/30 12:38:37;;;;;;;12.85;5.20;;;;;;;19.92;46.21;102362.13;5072724;28;20025;-70
2023/05/30 12:41:02;;;;;;;13.50;5.10;;;;;;;20.06;46.05;102370.84;5071258;28;20494;-71
2023/05/30 12:43:28;;;;;;;14.43;5.15;;;;;;;20.06;46.22;102367.28;5067543;28;20037;-70
2023/05/30 12:46:01;;;;;;;13.48;4.85;;;;;;;20.29;46.87;102358.00;5052248;28;20420;-76
2023/05/30 12:48:27;;;;;;;15.35;5.13;;;;;;;20.39;45.05;102365.56;5052378;28;20032;-72
2023/05/30 12:50:52;;;;;;;15.82;5.35;;;;;;;20.35;44.49;102357.81;5059283;28;20037;-71
2023/05/30 12:53:18;;;;;;;14.65;5.40;;;;;;;20.45;44.24;102359.03;5065894;28;20483;-74
2023/05/30 12:55:43;;;;;;;14.23;5.05;;;;;;;20.44;44.97;102366.47;5072132;28;20125;-77
2023/05/30 12:58:09;;;;;;;12.82;5.30;;;;;;;20.42;44.96;102352.13;5072183;28;20115;-72
2023/05/30 13:00:35;;;;;;;13.00;5.30;;;;;;;20.33;44.35;102354.47;5068638;28;20119;-76
2023/05/30 13:03:02;;;;;;;16.15;5.35;;;;;;;20.49;45.42;102350.03;5071206;28;20124;-77
2023/05/30 13:05:29;;;;;;;12.15;4.97;;;;;;;20.42;44.44;102356.81;5072132;28;20033;-75
2023/05/30 13:07:54;;;;;;;13.07;4.90;;;;;;;20.58;44.01;102352.31;5068072;28;20553;-75
2023/05/30 13:10:20;;;;;;;15.65;4.68;;;;;;;20.89;43.72;102357.16;5053810;28;20033;-75
2023/05/30 13:12:45;;;;;;;12.18;4.72;;;;;;;20.85;43.20;102358.75;5031813;28;20032;-74
2023/05/30 13:15:10;;;;;;;13.55;4.53;;;;;;;20.85;42.81;102350.47;5030949;28;20033;-76
2023/05/30 13:17:36;;;;;;;10.55;4.95;;;;;;;20.85;43.01;102344.16;5031834;28;20481;-75
2023/05/30 13:20:04;;;;;;;13.27;4.22;;;;;;;21.06;42.52;102342.44;5030903;28;20026;-78
2023/05/30 13:22:30;;;;;;;12.02;4.85;;;;;;;21.02;41.62;102344.88;5040669;28;20082;-71
2023/05/30 13:24:55;;;;;;;13.10;5.35;;;;;;;20.98;42.36;102338.22;5072096;28;20103;-73
2023/05/30 13:27:21;;;;;;;11.52;4.40;;;;;;;21.05;42.59;102330.59;5071852;28;20054;-75
2023/05/30 13:29:46;;;;;;;13.63;4.43;;;;;;;21.19;42.74;102328.25;5070582;28;20032;-73
2023/05/30 13:32:11;;;;;;;14.40;4.90;;;;;;;21.22;41.58;102321.41;5072094;28;20029;-77
2023/05/30 13:34:37;;;;;;;15.30;4.78;;;;;;;21.31;41.23;102322.59;5068560;28;20036;-74
2023/05/30 13:37:02;;;;;;;13.63;4.63;;;;;;;21.36;42.24;102322.66;5033815;28;20103;-72
2023/05/30 13:39:28;;;;;;;13.18;4.47;;;;;;;21.55;41.11;102314.81;5059126;28;20025;-74
2023/05/30 13:41:53;;;;;;;13.10;4.88;;;;;;;21.47;40.45;102329.06;5052536;28;20116;-74
2023/05/30 13:44:19;;;;;;;10.77;4.53;;;;;;;21.49;40.61;102326.03;5055781;28;20031;-73
2023/05/30 13:46:44;;;;;;;13.50;4.80;;;;;;;21.52;40.39;102325.56;5055554;28;20086;-72
2023/05/30 13:49:10;;;;;;;14.13;4.57;;;;;;;21.61;40.79;102312.94;5055681;28;20075;-70
2023/05/30 13:51:36;;;;;;;17.27;4.50;;;;;;;21.75;40.00;102308.63;5055401;28;20075;-72
2023/05/30 13:54:03;;;;;;;14.10;4.88;;;;;;;21.69;40.16;102312.44;5057244;28;20087;-72
2023/05/30 13:56:29;;;;;;;12.93;4.10;;;;;;;21.86;40.14;102319.72;5060774;28;20484;-72
2023/05/30 13:58:54;;;;;;;11.77;4.35;;;;;;;22.00;39.64;102303.56;5056602;28;20037;-72
2023/05/30 14:01:20;;;;;;;17.95;4.78;;;;;;;21.99;39.77;102305.47;5053054;28;20428;-72
2023/05/30 14:03:46;;;;;;;13.23;4.43;;;;;;;22.08;39.83;102300.28;5056346;28;20036;-72
2023/05/30 14:06:11;;;;;;;13.90;4.75;;;;;;;21.90;39.55;102309.84;5055493;28;20074;-72
2023/05/30 14:08:36;;;;;;;10.82;4.20;;;;;;;21.88;39.75;102312.03;5054870;28;20102;-72
2023/05/30 14:11:02;;;;;;;12.77;4.47;;;;;;;21.94;39.65;102305.47;5053902;28;20121;-74
2023/05/30 14:13:27;;;;;;;13.48;4.55;;;;;;;21.99;38.99;102297.19;5062749;28;20112;-74
2023/05/30 14:15:52;;;;;;;36.47;4.90;;;;;;;22.09;38.80;102302.78;5074613;28;20032;-74
2023/05/30 14:18:18;;;;;;;33.17;5.25;;;;;;;22.17;39.31;102300.63;5075227;28;20058;-73
2023/05/30 14:20:44;;;;;;;55.55;5.32;;;;;;;22.23;38.64;102302.28;5074934;28;20059;-73
2023/05/30 14:23:10;;;;;;;16.58;4.50;;;;;;;22.28;38.32;102305.06;5075107;28;20029;-74
2023/05/30 14:25:35;;;;;;;17.60;4.50;;;;;;;22.09;38.44;102301.97;5074788;28;20064;-74
2023/05/30 14:28:01;;;;;;;10.75;4.00;;;;;;;22.30;39.12;102291.84;5051467;28;20030;-73
2023/05/30 14:30:26;;;;;;;20.38;4.43;;;;;;;22.29;39.14;102304.78;5069221;28;20109;-73
2023/05/30 14:32:51;;;;;;;14.23;4.32;;;;;;;22.22;42.63;102286.84;5074683;28;20101;-72
2023/05/30 14:35:17;;;;;;;16.30;4.30;;;;;;;22.30;43.25;102298.19;5060459;28;20033;-77
2023/05/30 14:37:44;;;;;;;13.73;5.10;;;;;;;22.23;44.01;102296.78;5052963;28;20037;-74
2023/05/30 14:40:09;;;;;;;16.05;5.32;;;;;;;22.24;44.38;102285.47;5072493;28;20032;-73
2023/05/30 14:42:35;;;;;;;11.43;4.35;;;;;;;22.17;43.98;102275.81;5073133;28;20032;-75
2023/05/30 14:45:00;;;;;;;10.20;4.25;;;;;;;21.98;44.56;102284.50;5074654;28;20086;-74
2023/05/30 14:47:26;;;;;;;16.88;4.22;;;;;;;22.00;44.88;102281.50;5057201;28;20033;-72
2023/05/30 14:49:51;;;;;;;10.35;4.45;;;;;;;21.99;44.77;102283.41;5054236;28;20033;-71
2023/05/30 14:52:17;;;;;;;12.45;4.85;;;;;;;22.00;45.30;102276.00;5054281;28;20100;-72
2023/05/30 14:54:42;;;;;;;10.70;4.93;;;;;;;21.95;46.04;102274.03;5053741;28;20039;-72
2023/05/30 14:57:08;;;;;;;12.00;4.88;;;;;;;22.02;46.04;102279.31;5055108;28;20047;-72
2023/05/30 14:59:33;;;;;;;13.98;4.88;;;;;;;21.75;46.11;102280.25;5065139;28;20144;-72
2023/05/30 15:01:59;;;;;;;10.32;4.30;;;;;;;21.73;46.88;102275.00;5052635;28;20089;-71
2023/05/30 15:04:26;;;;;;;10.85;4.65;;;;;;;21.68;46.97;102280.50;5058565;28;20028;-71
2023/05/30 15:06:51;;;;;;;9.73;4.50;;;;;;;21.48;47.34;102267.34;5062041;28;20105;-72
2023/05/30 15:09:19;;;;;;;11.55;4.70;;;;;;;21.58;47.48;102274.91;5072310;28;20056;-72
2023/05/30 15:11:44;;;;;;;10.68;4.72;;;;;;;21.48;47.44;102281.13;5059568;28;20037;-72
2023/05/30 15:14:10;;;;;;;10.13;4.40;;;;;;;21.47;47.63;102279.50;5033673;28;20041;-72
2023/05/30 15:16:35;;;;;;;15.52;4.80;;;;;;;21.41;48.13;102281.38;5033932;28;20041;-71
2023/05/30 15:19:01;;;;;;;10.65;4.32;;;;;;;21.36;47.65;102270.31;5048281;28;20033;-71
2023/05/30 15:21:26;;;;;;;11.93;4.03;;;;;;;21.53;48.17;102272.09;5050765;28;20048;-71
2023/05/30 15:23:51;;;;;;;8.73;4.68;;;;;;;21.57;47.71;102267.72;5048501;28;20026;-71
2023/05/30 15:26:17;;;;;;;11.73;4.78;;;;;;;21.43;47.00;102273.66;5039837;28;20021;-71
2023/05/30 15:28:43;;;;;;;9.93;3.95;;;;;;;21.53;46.98;102277.63;5053102;28;20051;-74
2023/05/30 15:31:08;;;;;;;10.75;4.35;;;;;;;21.45;46.97;102270.66;5053257;28;20533;-73
2023/05/30 15:33:34;;;;;;;8.50;4.28;;;;;;;21.40;47.57;102271.44;5053162;28;20044;-70
2023/05/30 15:36:00;;;;;;;9.73;3.92;;;;;;;21.86;46.85;102278.38;5053234;28;20097;-74
2023/05/30 15:38:25;;;;;;;6.93;3.78;;;;;;;22.24;45.78;102276.38;5045235;28;20154;-71
2023/05/30 15:40:51;;;;;;;7.80;3.97;;;;;;;22.90;44.91;102274.94;5051886;28;20392;-74
2023/05/30 15:43:16;;;;;;;10.95;4.00;;;;;;;23.16;43.58;102286.88;5048824;28;20026;-72
2023/05/30 15:45:41;;;;;;;10.82;4.40;;;;;;;22.93;43.68;102277.13;5048748;28;20083;-77
2023/05/30 15:48:07;;;;;;;6.88;3.65;;;;;;;23.05;43.65;102265.84;5051515;28;20033;-70
2023/05/30 15:50:32;;;;;;;12.52;4.20;;;;;;;23.10;43.23;102269.47;5057733;28;20035;-73
2023/05/30 15:52:57;;;;;;;6.60;3.88;;;;;;;22.68;44.08;102276.00;5051337;28;20086;-74
2023/05/30 15:55:23;;;;;;;8.27;3.80;;;;;;;22.78;43.59;102272.41;5052314;28;20064;-72
2023/05/30 15:57:48;;;;;;;9.05;4.03;;;;;;;22.63;44.07;102276.81;5051775;28;20758;-76
2023/05/30 16:00:15;;;;;;;8.02;4.05;;;;;;;22.14;44.98;102268.88;5052916;28;20032;-74
2023/05/30 16:02:41;;;;;;;12.38;5.15;;;;;;;21.51;46.52;102268.78;5050352;28;20056;-70
2023/05/30 16:05:08;;;;;;;8.90;4.30;;;;;;;21.12;47.71;102267.09;5052092;28;20065;-72
2023/05/30 16:07:33;;;;;;;14.48;4.18;;;;;;;20.94;48.69;102273.81;5066520;28;20034;-73
